Time;durP1;ratioP1;P1;durP2;ratioP2;P2;SDS_P1;SDS_P2;PMS_P1;PMS_P2;Temp;Humidity;BMP_temperature;BMP_pressure;BME280_temperature;BME280_humidity;BME280_pressure;Samples;Min_cycle;Max_cycle;Signal;HPM_P1;HPM_P2
2021/11/15 00:00:29;;;;;;;28.45;17.80;;;;;;;8.25;91.62;102937.38;5012707;28;20060;-70
2021/11/15 00:02:56;;;;;;;27.80;17.80;;;;;;;8.23;90.85;102933.88;5019031;28;20029;-69
2021/11/15 00:05:22;;;;;;;28.33;17.63;;;;;;;8.26;91.34;102933.03;5022503;28;20486;-70
2021/11/15 00:07:47;;;;;;;31.58;17.65;;;;;;;8.23;91.35;102928.63;5026826;28;20037;-70
2021/11/15 00:10:18;;;;;;;25.70;17.88;;;;;;;8.23;91.41;102928.63;5024802;28;20025;-70
2021/11/15 00:12:45;;;;;;;28.23;17.30;;;;;;;8.22;91.68;102927.78;5024675;28;20113;-70
2021/11/15 00:15:11;;;;;;;27.75;17.77;;;;;;;8.22;91.49;102922.53;5025708;28;20476;-69
2021/11/15 00:17:36;;;;;;;29.98;17.67;;;;;;;8.21;91.83;102925.13;5026073;28;20053;-69
2021/11/15 00:20:03;;;;;;;26.85;17.70;;;;;;;8.22;91.51;102935.63;5010907;28;20036;-70
2021/11/15 00:22:28;;;;;;;27.30;17.08;;;;;;;8.21;91.55;102926.00;5017273;28;20349;-69
2021/11/15 00:24:54;;;;;;;28.65;18.58;;;;;;;8.20;91.46;102926.88;5025541;28;20104;-71
2021/11/15 00:27:19;;;;;;;33.53;18.58;;;;;;;8.19;91.14;102927.72;5025090;28;20025;-68
2021/11/15 00:29:44;;;;;;;28.35;18.27;;;;;;;8.19;91.92;102930.34;5026572;28;20025;-71
2021/11/15 00:32:09;;;;;;;28.60;17.88;;;;;;;8.17;92.00;102933.81;5029527;28;20021;-70
2021/11/15 00:34:35;;;;;;;27.60;17.83;;;;;;;8.16;91.69;102929.44;5024585;28;20021;-69
2021/11/15 00:37:00;;;;;;;30.73;19.00;;;;;;;8.17;92.13;102928.56;5025963;28;20096;-71
2021/11/15 00:39:25;;;;;;;30.95;18.60;;;;;;;8.16;92.22;102932.94;5031767;28;20022;-68
2021/11/15 00:41:51;;;;;;;28.40;18.67;;;;;;;8.16;92.20;102930.31;5024196;28;20029;-71
2021/11/15 00:44:16;;;;;;;29.48;18.85;;;;;;;8.14;92.35;102928.56;5029892;28;20076;-69
2021/11/15 00:46:41;;;;;;;29.10;19.25;;;;;;;8.15;92.22;102925.06;5030350;28;20018;-68
2021/11/15 00:49:07;;;;;;;27.17;17.27;;;;;;;8.15;92.21;102917.22;5029951;28;20025;-70
2021/11/15 00:51:32;;;;;;;30.80;18.35;;;;;;;8.14;92.35;102913.72;5029991;28;20477;-70
2021/11/15 00:53:58;;;;;;;29.92;18.48;;;;;;;8.13;92.40;102919.81;5017266;28;20447;-71
2021/11/15 00:56:24;;;;;;;27.08;17.88;;;;;;;8.13;92.18;102911.97;5010479;28;20054;-69
2021/11/15 00:58:49;;;;;;;29.20;18.58;;;;;;;8.09;92.44;102918.03;5020633;28;20037;-69
2021/11/15 01:01:15;;;;;;;30.20;18.67;;;;;;;8.10;92.00;102911.06;5024611;28;20018;-69
2021/11/15 01:03:40;;;;;;;27.85;18.10;;;;;;;8.08;92.22;102914.53;5008187;28;20026;-70
2021/11/15 01:06:06;;;;;;;27.55;17.52;;;;;;;8.06;91.72;102915.38;5022478;28;20477;-68
2021/11/15 01:08:31;;;;;;;28.17;18.65;;;;;;;8.06;91.40;102921.50;5015681;28;20465;-69
2021/11/15 01:10:57;;;;;;;28.17;17.80;;;;;;;8.05;91.15;102909.28;5029369;28;20021;-70
2021/11/15 01:13:23;;;;;;;28.88;16.88;;;;;;;8.07;91.74;102909.28;5026663;28;20508;-68
2021/11/15 01:15:49;;;;;;;23.00;15.82;;;;;;;8.03;89.77;102915.38;5028577;28;20478;-70
2021/11/15 01:18:14;;;;;;;28.23;16.67;;;;;;;8.05;90.63;102917.13;5026459;28;20029;-70
2021/11/15 01:20:40;;;;;;;26.77;16.75;;;;;;;8.08;90.52;102911.06;5028301;28;20021;-71
2021/11/15 01:23:07;;;;;;;26.08;16.58;;;;;;;8.07;90.16;102909.28;5027753;28;20044;-69
2021/11/15 01:25:32;;;;;;;23.58;15.75;;;;;;;8.07;90.81;102911.91;5028524;28;20047;-70
2021/11/15 01:27:58;;;;;;;24.52;16.23;;;;;;;8.06;90.56;102902.31;5028125;28;20029;-68
2021/11/15 01:30:24;;;;;;;23.95;15.75;;;;;;;8.05;90.15;102900.56;5028304;28;20025;-69
2021/11/15 01:32:50;;;;;;;22.60;16.38;;;;;;;8.05;89.25;102904.06;5028572;28;20103;-67
2021/11/15 01:35:15;;;;;;;23.95;15.00;;;;;;;8.04;89.22;102896.22;5027367;28;20064;-69
2021/11/15 01:37:41;;;;;;;24.17;14.27;;;;;;;8.07;89.16;102896.22;5027666;28;20064;-69
2021/11/15 01:40:09;;;;;;;20.00;14.13;;;;;;;8.05;88.95;102895.31;5027696;28;20474;-70
2021/11/15 01:42:34;;;;;;;21.75;14.95;;;;;;;8.05;89.22;102897.94;5027917;28;20052;-70
2021/11/15 01:45:00;;;;;;;26.60;15.48;;;;;;;8.02;89.19;102896.16;5007834;28;20483;-70
2021/11/15 01:47:25;;;;;;;24.70;14.35;;;;;;;8.04;89.44;102890.97;5028404;28;20068;-68
2021/11/15 01:49:51;;;;;;;22.58;14.68;;;;;;;8.01;89.18;102891.84;5026906;28;20099;-70
2021/11/15 01:52:16;;;;;;;21.08;14.10;;;;;;;8.03;89.14;102894.47;5028103;28;20512;-70
2021/11/15 01:54:42;;;;;;;21.10;13.68;;;;;;;8.05;88.23;102890.09;5027614;28;20029;-70
2021/11/15 01:57:07;;;;;;;21.15;13.68;;;;;;;8.03;87.75;102899.69;5028415;28;20127;-70
2021/11/15 01:59:32;;;;;;;21.25;14.20;;;;;;;8.02;87.87;102901.41;5027943;28;20473;-69
2021/11/15 02:01:58;;;;;;;24.15;14.93;;;;;;;7.96;87.74;102905.69;5025957;28;20496;-69
2021/11/15 02:04:23;;;;;;;18.63;13.65;;;;;;;7.99;88.52;102901.38;5027055;28;20030;-69
2021/11/15 02:06:49;;;;;;;28.40;15.43;;;;;;;8.02;88.25;102903.16;5025833;28;20026;-69
2021/11/15 02:09:14;;;;;;;24.00;14.98;;;;;;;8.01;88.29;102906.63;5026460;28;20021;-69
2021/11/15 02:11:40;;;;;;;20.85;14.38;;;;;;;7.99;89.19;102898.78;5027798;28;20117;-69
2021/11/15 02:14:06;;;;;;;19.90;14.40;;;;;;;7.98;89.25;102893.53;5026614;28;20025;-69
2021/11/15 02:16:32;;;;;;;20.23;14.63;;;;;;;7.97;89.39;102899.63;5027414;28;20017;-68
2021/11/15 02:18:57;;;;;;;25.05;15.05;;;;;;;7.97;89.50;102894.38;5025876;28;20025;-70
2021/11/15 02:21:23;;;;;;;19.52;14.35;;;;;;;7.96;88.96;102897.84;5026918;28;20049;-70
2021/11/15 02:23:50;;;;;;;25.50;15.98;;;;;;;7.95;89.51;102890.88;5027239;28;20037;-69
2021/11/15 02:26:17;;;;;;;21.73;13.85;;;;;;;7.95;89.58;102901.31;5029405;28;20493;-69
2021/11/15 02:28:46;;;;;;;26.92;15.07;;;;;;;7.93;89.60;102893.47;5028479;28;20045;-69
2021/11/15 02:31:22;;;;;;;20.40;14.40;;;;;;;7.95;89.40;102904.84;5026900;28;20020;-70
2021/11/15 02:33:51;;;;;;;22.27;14.82;;;;;;;7.93;89.02;102901.31;5025908;28;20192;-69
2021/11/15 02:36:16;;;;;;;24.42;14.65;;;;;;;7.90;89.03;102899.53;5025362;28;20466;-69
2021/11/15 02:38:42;;;;;;;23.20;15.15;;;;;;;7.93;89.58;102897.84;5026852;28;20036;-70
2021/11/15 02:41:07;;;;;;;22.02;14.88;;;;;;;7.90;89.30;102889.09;5025947;28;20072;-70
2021/11/15 02:43:33;;;;;;;22.73;14.70;;;;;;;7.93;89.60;102890.00;5025739;28;20381;-69
2021/11/15 02:45:59;;;;;;;21.75;14.30;;;;;;;7.94;90.05;102883.88;5022805;28;20025;-69
2021/11/15 02:48:26;;;;;;;22.38;14.82;;;;;;;7.93;89.86;102882.16;5006146;28;20057;-69
2021/11/15 02:50:52;;;;;;;23.23;14.95;;;;;;;7.93;88.99;102884.78;5020506;28;20022;-69
2021/11/15 02:53:17;;;;;;;25.85;15.45;;;;;;;7.93;88.99;102884.78;5011532;28;20394;-69
2021/11/15 02:55:43;;;;;;;23.35;14.88;;;;;;;7.89;88.33;102887.34;5026026;28;20096;-69
2021/11/15 02:58:10;;;;;;;22.63;14.35;;;;;;;7.89;88.37;102882.09;5025854;28;20075;-70
2021/11/15 03:00:54;;;;;;;19.67;13.43;;;;;;;7.90;88.70;102894.31;5026002;28;20021;-70
2021/11/15 03:03:20;;;;;;;23.17;14.73;;;;;;;7.90;88.67;102889.09;5026532;28;20541;-71
2021/11/15 03:05:49;;;;;;;21.55;14.25;;;;;;;7.89;89.19;102884.72;5026143;28;20108;-70
2021/11/15 03:08:15;;;;;;;25.00;16.25;;;;;;;7.90;89.34;102886.47;5025651;28;20132;-69
2021/11/15 03:10:42;;;;;;;24.58;15.13;;;;;;;7.89;89.57;102887.34;5025782;28;20021;-71
2021/11/15 03:13:09;;;;;;;24.23;15.32;;;;;;;7.87;89.58;102882.94;5004894;28;20022;-70
2021/11/15 03:15:37;;;;;;;21.65;14.07;;;;;;;7.82;89.40;102885.50;5025629;28;20021;-70
2021/11/15 03:18:05;;;;;;;22.48;15.10;;;;;;;7.84;89.93;102886.41;5024843;28;20445;-71
2021/11/15 03:20:33;;;;;;;22.58;15.48;;;;;;;7.86;89.95;102892.53;5024489;28;20076;-70
2021/11/15 03:22:59;;;;;;;22.40;15.38;;;;;;;7.83;89.75;102889.00;5025520;28;20112;-70
2021/11/15 03:25:26;;;;;;;26.17;16.63;;;;;;;7.83;90.14;102891.63;5021845;28;20057;-70
2021/11/15 03:27:52;;;;;;;21.10;14.85;;;;;;;7.82;89.93;102889.88;5014284;28;20025;-70
2021/11/15 03:30:18;;;;;;;24.35;16.02;;;;;;;7.81;89.92;102883.75;5025016;28;20021;-70
2021/11/15 03:32:45;;;;;;;25.45;14.75;;;;;;;7.83;89.88;102881.19;5025141;28;20025;-70
2021/11/15 03:35:10;;;;;;;21.77;14.98;;;;;;;7.81;89.78;102878.53;5025405;28;20022;-70
2021/11/15 03:37:36;;;;;;;22.83;15.13;;;;;;;7.81;89.53;102885.50;5025373;28;20029;-69
2021/11/15 03:40:01;;;;;;;21.00;14.98;;;;;;;7.79;88.98;102881.97;5026064;28;20450;-70
2021/11/15 03:42:27;;;;;;;25.33;14.38;;;;;;;7.79;89.52;102880.25;5021438;28;20432;-70
2021/11/15 03:44:52;;;;;;;23.23;14.98;;;;;;;7.79;89.72;102879.38;5014366;28;20022;-70
2021/11/15 03:47:20;;;;;;;23.45;15.07;;;;;;;7.78;89.48;102883.72;5025023;28;20117;-69
2021/11/15 03:49:46;;;;;;;23.70;14.75;;;;;;;7.74;89.65;102887.19;5025496;28;20013;-69
2021/11/15 03:52:11;;;;;;;21.65;14.68;;;;;;;7.76;89.83;102888.03;5024031;28;20087;-69
2021/11/15 03:54:36;;;;;;;21.00;14.18;;;;;;;7.74;89.83;102884.56;5025314;28;20105;-69
2021/11/15 03:57:02;;;;;;;21.35;14.57;;;;;;;7.74;89.64;102889.78;5024923;28;20056;-69
2021/11/15 03:59:27;;;;;;;21.45;13.73;;;;;;;7.69;88.83;102889.72;5012641;28;20029;-69
2021/11/15 04:01:53;;;;;;;23.58;13.43;;;;;;;7.71;88.98;102884.50;5023130;28;20045;-69
2021/11/15 04:04:21;;;;;;;21.55;13.20;;;;;;;7.69;87.89;102888.81;5025529;28;20025;-69
2021/11/15 04:06:51;;;;;;;23.92;13.85;;;;;;;7.68;88.00;102889.72;5028545;28;20035;-69
2021/11/15 04:09:17;;;;;;;20.65;13.35;;;;;;;7.67;87.42;102882.72;5029202;28;20049;-70
2021/11/15 04:11:43;;;;;;;21.80;13.38;;;;;;;7.65;87.77;102881.81;5028573;28;20018;-70
2021/11/15 04:14:11;;;;;;;20.98;13.30;;;;;;;7.68;88.11;102892.31;5027906;28;20032;-70
2021/11/15 04:16:37;;;;;;;23.70;14.18;;;;;;;7.69;88.15;102892.34;5028947;28;20417;-70
2021/11/15 04:19:07;;;;;;;23.58;13.75;;;;;;;7.71;88.96;102887.97;5027565;28;20017;-70
2021/11/15 04:21:34;;;;;;;21.67;13.50;;;;;;;7.69;88.87;102889.72;5028124;28;20025;-70
2021/11/15 04:23:59;;;;;;;25.52;14.50;;;;;;;7.68;89.29;102882.75;5027348;28;20163;-70
2021/11/15 04:26:24;;;;;;;27.85;14.32;;;;;;;7.67;89.39;102888.81;5029421;28;20101;-70
2021/11/15 04:28:50;;;;;;;28.33;15.65;;;;;;;7.69;89.95;102888.81;5028588;28;20025;-70
2021/11/15 04:31:15;;;;;;;26.30;14.25;;;;;;;7.70;89.80;102886.25;5028054;28;20478;-70
2021/11/15 04:33:41;;;;;;;26.55;15.38;;;;;;;7.71;90.04;102889.72;5028029;28;20029;-70
2021/11/15 04:36:06;;;;;;;25.33;14.30;;;;;;;7.68;90.11;102887.09;5029251;28;20025;-70
2021/11/15 04:38:32;;;;;;;23.45;13.73;;;;;;;7.67;89.95;102883.59;5028587;28;20025;-70
2021/11/15 04:40:57;;;;;;;23.27;13.80;;;;;;;7.68;90.44;102887.97;5014499;28;20060;-70
2021/11/15 04:43:23;;;;;;;24.42;14.18;;;;;;;7.68;90.45;102892.31;5028684;28;20029;-70
2021/11/15 04:45:48;;;;;;;22.83;14.70;;;;;;;7.67;90.58;102880.97;5028607;28;20026;-70
2021/11/15 04:48:14;;;;;;;28.17;15.20;;;;;;;7.66;90.83;102891.41;5028483;28;20061;-70
2021/11/15 04:50:39;;;;;;;21.40;13.25;;;;;;;7.67;90.80;102887.94;5025564;28;20031;-71
2021/11/15 04:53:05;;;;;;;25.45;15.23;;;;;;;7.67;90.86;102885.34;5023277;28;20021;-70
2021/11/15 04:55:30;;;;;;;27.27;14.80;;;;;;;7.67;91.04;102887.94;5028025;28;20394;-70
2021/11/15 04:57:56;;;;;;;23.40;14.13;;;;;;;7.67;91.38;102890.56;5027466;28;20025;-70
2021/11/15 05:00:27;;;;;;;21.73;14.50;;;;;;;7.67;91.58;102893.19;5020300;28;20034;-70
2021/11/15 05:02:52;;;;;;;22.50;15.02;;;;;;;7.67;92.16;102898.41;5021875;28;20079;-70
2021/11/15 05:05:19;;;;;;;28.27;15.48;;;;;;;7.66;92.74;102896.63;5019856;28;20474;-70
2021/11/15 05:07:46;;;;;;;29.83;15.50;;;;;;;7.62;92.88;102897.47;5019959;28;20064;-70
2021/11/15 05:10:11;;;;;;;25.95;14.23;;;;;;;7.63;93.32;102899.19;5025510;28;20021;-71
2021/11/15 05:12:37;;;;;;;28.45;15.40;;;;;;;7.61;93.20;102899.19;5027728;28;20052;-70
2021/11/15 05:15:08;;;;;;;28.45;15.57;;;;;;;7.60;93.12;102892.22;5012932;28;20053;-71
2021/11/15 05:17:33;;;;;;;29.85;15.13;;;;;;;7.61;93.41;102891.34;5005611;28;20022;-70
2021/11/15 05:19:59;;;;;;;24.67;14.27;;;;;;;7.55;93.48;102889.56;5021506;28;20494;-71
2021/11/15 05:22:24;;;;;;;25.48;13.55;;;;;;;7.55;93.26;102884.34;5027249;28;20147;-71
2021/11/15 05:24:49;;;;;;;25.27;14.43;;;;;;;7.54;93.19;102893.03;5027337;28;20437;-69
2021/11/15 05:27:15;;;;;;;22.88;13.13;;;;;;;7.49;92.97;102886.88;5027081;28;20026;-70
2021/11/15 05:29:40;;;;;;;23.40;13.60;;;;;;;7.49;93.03;102893.81;5027120;28;20393;-70
2021/11/15 05:32:06;;;;;;;23.25;13.27;;;;;;;7.47;92.80;102903.34;5026734;28;20025;-70
2021/11/15 05:34:31;;;;;;;20.10;12.48;;;;;;;7.46;92.21;102892.03;5026780;28;20390;-71
2021/11/15 05:36:56;;;;;;;19.20;12.77;;;;;;;7.47;92.25;102893.78;5027444;28;20117;-71
2021/11/15 05:39:22;;;;;;;24.95;13.65;;;;;;;7.45;91.98;102900.72;5027259;28;20021;-69
2021/11/15 05:41:47;;;;;;;20.30;12.77;;;;;;;7.46;92.06;102901.63;5027248;28;20025;-71
2021/11/15 05:44:13;;;;;;;19.80;12.02;;;;;;;7.44;91.90;102904.19;5026724;28;20023;-71
2021/11/15 05:46:38;;;;;;;21.58;12.80;;;;;;;7.47;91.76;102911.19;5026718;28;20025;-71
2021/11/15 05:49:03;;;;;;;20.08;12.80;;;;;;;7.43;91.96;102913.75;5023088;28;20021;-71
2021/11/15 05:51:29;;;;;;;20.85;12.77;;;;;;;7.42;92.00;102908.53;5007620;28;20032;-71
2021/11/15 05:53:55;;;;;;;21.88;12.30;;;;;;;7.41;91.95;102899.81;5007800;28;20032;-71
2021/11/15 05:56:21;;;;;;;19.58;13.20;;;;;;;7.40;92.04;102898.03;5011771;28;20520;-70
2021/11/15 05:58:46;;;;;;;20.48;12.43;;;;;;;7.38;91.91;102899.78;5011445;28;20061;-72
2021/11/15 06:01:11;;;;;;;20.38;12.30;;;;;;;7.36;91.79;102905.84;5008317;28;20100;-69
2021/11/15 06:03:37;;;;;;;19.98;12.60;;;;;;;7.37;91.79;102902.38;5009924;28;20032;-70
2021/11/15 06:06:02;;;;;;;21.77;13.30;;;;;;;7.38;91.72;102912.84;5017276;28;20095;-71
2021/11/15 06:08:27;;;;;;;23.80;13.45;;;;;;;7.39;91.98;102911.09;5007627;28;20022;-71
2021/11/15 06:10:53;;;;;;;23.33;13.77;;;;;;;7.37;91.96;102908.47;5009356;28;20061;-70
2021/11/15 06:13:19;;;;;;;23.85;12.88;;;;;;;7.34;92.27;102908.41;5010421;28;20482;-71
2021/11/15 06:15:44;;;;;;;21.52;13.73;;;;;;;7.35;92.46;102909.28;5012238;28;20030;-70
2021/11/15 06:18:10;;;;;;;24.77;14.45;;;;;;;7.36;92.46;102919.75;5009598;28;20144;-71
2021/11/15 06:20:35;;;;;;;23.38;14.32;;;;;;;7.34;92.82;102918.84;5009430;28;20010;-71
2021/11/15 06:23:00;;;;;;;23.52;14.98;;;;;;;7.35;93.35;102919.75;5007494;28;20378;-70
2021/11/15 06:25:26;;;;;;;22.20;14.35;;;;;;;7.34;93.31;102920.59;5007556;28;20156;-70
2021/11/15 06:27:51;;;;;;;25.63;13.95;;;;;;;7.32;93.40;102919.69;5006972;28;20417;-68
2021/11/15 06:30:19;;;;;;;21.73;14.13;;;;;;;7.33;93.44;102916.22;5006576;28;20080;-69
2021/11/15 06:32:44;;;;;;;21.75;13.45;;;;;;;7.32;93.05;102919.69;5009143;28;20486;-69
2021/11/15 06:35:11;;;;;;;22.75;13.95;;;;;;;7.30;92.94;102924.03;5006717;28;20026;-69
2021/11/15 06:37:37;;;;;;;20.52;13.23;;;;;;;7.31;92.15;102924.03;5011575;28;20022;-71
2021/11/15 06:40:07;;;;;;;22.58;13.82;;;;;;;7.28;91.91;102918.75;5007121;28;20064;-70
2021/11/15 06:42:32;;;;;;;21.63;13.73;;;;;;;7.32;92.15;102917.06;5007374;28;20041;-70
2021/11/15 06:44:58;;;;;;;21.17;13.60;;;;;;;7.31;92.18;102912.72;5006523;28;20029;-69
2021/11/15 06:47:23;;;;;;;20.00;13.82;;;;;;;7.32;92.17;102914.47;5007418;28;21650;-69
2021/11/15 06:49:51;;;;;;;21.83;14.27;;;;;;;7.31;92.29;102917.94;5008738;28;20053;-70
2021/11/15 06:52:18;;;;;;;21.83;14.85;;;;;;;7.29;92.54;102920.50;5008060;28;20034;-70
2021/11/15 06:54:44;;;;;;;22.98;15.00;;;;;;;7.30;92.78;102916.19;5006804;28;20018;-71
2021/11/15 06:57:09;;;;;;;22.00;15.32;;;;;;;7.29;92.68;102914.44;5005466;28;20117;-72
2021/11/15 06:59:34;;;;;;;24.60;14.93;;;;;;;7.26;92.97;102916.13;5007793;28;20026;-69
2021/11/15 07:01:59;;;;;;;24.13;15.00;;;;;;;7.28;93.23;102918.75;5009547;28;20018;-70
2021/11/15 07:04:25;;;;;;;23.65;16.20;;;;;;;7.30;93.46;102918.81;5010262;28;20017;-71
2021/11/15 07:06:50;;;;;;;23.30;16.05;;;;;;;7.30;93.71;102926.63;5025175;28;20018;-70
2021/11/15 07:09:17;;;;;;;26.70;16.38;;;;;;;7.30;93.72;102937.94;5025419;28;20025;-69
2021/11/15 07:11:42;;;;;;;28.42;16.27;;;;;;;7.30;93.58;102940.56;5007856;28;20018;-68
2021/11/15 07:14:08;;;;;;;26.63;16.67;;;;;;;7.30;93.84;102948.38;5006963;28;20017;-68
2021/11/15 07:16:33;;;;;;;25.83;16.30;;;;;;;7.29;93.55;102954.44;5017469;28;20485;-69
2021/11/15 07:18:58;;;;;;;24.27;16.17;;;;;;;7.27;94.16;102951.81;5019206;28;20029;-67
2021/11/15 07:21:24;;;;;;;27.30;17.42;;;;;;;7.27;94.12;102954.44;5032341;28;20477;-68
2021/11/15 07:23:50;;;;;;;26.23;15.60;;;;;;;7.27;94.11;102961.41;5032257;28;20076;-70
2021/11/15 07:26:15;;;;;;;24.67;15.90;;;;;;;7.24;93.60;102957.03;5034134;28;20075;-69
2021/11/15 07:28:42;;;;;;;23.60;16.27;;;;;;;7.24;93.48;102959.63;5032176;28;20037;-68
2021/11/15 07:31:08;;;;;;;22.23;15.88;;;;;;;7.26;93.46;102952.69;5031966;28;20025;-70
2021/11/15 07:33:33;;;;;;;27.90;15.77;;;;;;;7.25;92.93;102956.13;5036664;28;20017;-70
2021/11/15 07:35:59;;;;;;;28.13;16.67;;;;;;;7.22;93.04;102957.84;5031363;28;20047;-68
2021/11/15 07:38:24;;;;;;;30.02;16.63;;;;;;;7.23;93.61;102965.69;5035321;28;20028;-70
2021/11/15 07:40:50;;;;;;;22.58;16.15;;;;;;;7.24;93.63;102957.03;5034265;28;20033;-70
2021/11/15 07:43:15;;;;;;;22.38;16.75;;;;;;;7.25;93.79;102956.13;5037025;28;20082;-69
2021/11/15 07:45:41;;;;;;;23.35;16.25;;;;;;;7.25;93.46;102947.44;5038367;28;20025;-69
2021/11/15 07:48:07;;;;;;;22.27;15.27;;;;;;;7.21;93.51;102954.34;5035056;28;20448;-69
2021/11/15 07:50:33;;;;;;;23.10;16.23;;;;;;;7.16;93.07;102958.63;5040344;28;20089;-69
2021/11/15 07:52:58;;;;;;;25.05;16.27;;;;;;;7.16;93.75;102949.94;5028473;28;20373;-71
2021/11/15 07:55:23;;;;;;;23.55;15.90;;;;;;;7.17;93.57;102959.50;5025261;28;20029;-68
2021/11/15 07:57:49;;;;;;;23.92;16.45;;;;;;;7.14;93.68;102952.50;5019884;28;20092;-70
2021/11/15 08:00:17;;;;;;;23.77;16.33;;;;;;;7.15;93.32;102950.78;5016772;28;20026;-70
2021/11/15 08:02:43;;;;;;;23.80;15.52;;;;;;;7.14;93.62;102947.28;5033492;28;20048;-70
2021/11/15 08:05:11;;;;;;;23.05;16.23;;;;;;;7.15;93.71;102951.63;5023356;28;20053;-70
2021/11/15 08:07:36;;;;;;;23.83;15.73;;;;;;;7.16;93.71;102950.78;5014171;28;20021;-68
2021/11/15 08:10:04;;;;;;;21.27;14.80;;;;;;;7.18;93.78;102948.19;5015889;28;20401;-69
2021/11/15 08:12:40;;;;;;;19.75;14.20;;;;;;;7.15;93.33;102951.63;5041657;28;20017;-69
2021/11/15 08:15:08;;;;;;;22.58;14.90;;;;;;;7.09;93.03;102947.22;5040121;28;20086;-69
2021/11/15 08:17:36;;;;;;;19.35;13.48;;;;;;;7.08;92.58;102955.91;5040479;28;20025;-69
2021/11/15 08:20:03;;;;;;;19.75;13.55;;;;;;;7.07;92.87;102948.03;5039956;28;20552;-69
2021/11/15 08:22:28;;;;;;;18.92;13.02;;;;;;;7.07;92.68;102951.53;5024143;28;20366;-68
2021/11/15 08:24:53;;;;;;;21.25;14.48;;;;;;;7.08;92.65;102949.78;5027532;28;20588;-69
2021/11/15 08:27:19;;;;;;;20.48;14.70;;;;;;;7.10;92.76;102941.13;5027908;28;20399;-69
2021/11/15 08:29:45;;;;;;;25.27;15.27;;;;;;;7.10;93.08;102946.34;5026910;28;20029;-67
2021/11/15 08:32:11;;;;;;;21.55;13.70;;;;;;;7.13;92.92;102950.72;5020194;28;20028;-68
2021/11/15 08:34:37;;;;;;;20.80;13.63;;;;;;;7.11;92.66;102947.25;5024699;28;20030;-68
2021/11/15 08:37:05;;;;;;;19.13;13.80;;;;;;;7.08;92.63;102945.47;5019424;28;20029;-69
2021/11/15 08:39:32;;;;;;;17.90;12.57;;;;;;;7.09;92.72;102942.00;5035214;28;20431;-69
2021/11/15 08:42:04;;;;;;;21.75;13.63;;;;;;;7.10;92.49;102946.34;5033428;28;20583;-68
2021/11/15 08:44:30;;;;;;;20.30;14.63;;;;;;;7.07;92.20;102937.59;5034697;28;20039;-69
2021/11/15 08:46:57;;;;;;;19.00;13.57;;;;;;;7.06;92.20;102938.47;5033151;28;20025;-70
2021/11/15 08:49:27;;;;;;;25.27;15.23;;;;;;;7.07;92.75;102937.59;5034336;28;20387;-70
2021/11/15 08:51:53;;;;;;;22.67;14.80;;;;;;;7.08;92.65;102944.56;5015402;28;20652;-69
2021/11/15 08:54:20;;;;;;;20.75;14.65;;;;;;;7.03;92.07;102936.69;5018894;28;20026;-70
2021/11/15 08:56:48;;;;;;;20.33;14.88;;;;;;;7.06;92.87;102939.34;5009657;28;20054;-70
2021/11/15 08:59:14;;;;;;;22.20;14.50;;;;;;;7.07;93.03;102942.81;5016016;28;20052;-71
2021/11/15 09:01:40;;;;;;;21.38;15.30;;;;;;;7.09;93.02;102933.28;5030755;28;20033;-71
2021/11/15 09:04:08;;;;;;;20.63;14.57;;;;;;;7.13;93.32;102945.50;5015173;28;20041;-72
2021/11/15 09:06:34;;;;;;;21.75;15.30;;;;;;;7.13;93.13;102944.66;5009920;28;20022;-72
2021/11/15 09:09:00;;;;;;;20.08;14.18;;;;;;;7.15;93.33;102938.59;5005494;28;20041;-71
2021/11/15 09:11:26;;;;;;;22.92;15.57;;;;;;;7.17;93.76;102942.13;5015862;28;20032;-70
2021/11/15 09:13:51;;;;;;;21.20;14.27;;;;;;;7.18;93.56;102942.97;5026544;28;20110;-69
2021/11/15 09:16:17;;;;;;;24.05;15.43;;;;;;;7.18;93.33;102935.16;5025823;28;20389;-70
2021/11/15 09:18:43;;;;;;;20.25;14.30;;;;;;;7.21;93.81;102949.13;5020702;28;20390;-71
2021/11/15 09:21:10;;;;;;;20.25;14.57;;;;;;;7.23;93.58;102937.00;5007328;28;20102;-70
2021/11/15 09:23:39;;;;;;;25.58;14.80;;;;;;;7.22;93.75;102935.22;5029663;28;20113;-70
2021/11/15 09:26:05;;;;;;;23.15;15.52;;;;;;;7.22;93.59;102936.97;5018339;28;20433;-71
2021/11/15 09:28:30;;;;;;;22.02;14.90;;;;;;;7.21;93.52;102927.38;5012398;28;20021;-70
2021/11/15 09:30:56;;;;;;;22.42;15.35;;;;;;;7.19;93.22;102929.94;5025423;28;20069;-71
2021/11/15 09:33:21;;;;;;;21.60;15.13;;;;;;;7.15;93.42;102929.91;5027695;28;20088;-70
2021/11/15 09:35:49;;;;;;;26.00;15.73;;;;;;;7.17;93.66;102938.59;5028959;28;20025;-71
2021/11/15 09:38:20;;;;;;;21.55;14.98;;;;;;;7.18;93.52;102933.44;5030285;28;20025;-70
2021/11/15 09:40:48;;;;;;;25.00;15.60;;;;;;;7.14;92.57;102923.78;5015832;28;20091;-69
2021/11/15 09:43:15;;;;;;;25.13;15.38;;;;;;;7.11;93.23;102924.63;5027855;28;20032;-68
2021/11/15 09:45:42;;;;;;;23.10;15.05;;;;;;;7.15;93.10;102928.16;5023931;28;20022;-70
2021/11/15 09:48:09;;;;;;;24.67;15.38;;;;;;;7.24;91.93;102924.81;5020092;28;20048;-70
2021/11/15 09:50:36;;;;;;;25.50;14.88;;;;;;;7.21;92.56;102924.78;5029135;28;20079;-69
2021/11/15 09:53:01;;;;;;;23.90;15.25;;;;;;;7.17;92.45;102915.13;5033724;28;20085;-69
2021/11/15 09:55:27;;;;;;;26.08;16.75;;;;;;;7.16;92.93;102916.00;5027948;28;20064;-70
2021/11/15 09:57:52;;;;;;;24.45;15.70;;;;;;;7.16;92.73;102914.25;5029528;28;20458;-70
2021/11/15 10:00:21;;;;;;;23.95;16.40;;;;;;;7.17;93.16;102921.25;5026245;28;20053;-68
2021/11/15 10:02:47;;;;;;;24.45;16.48;;;;;;;7.16;93.14;102922.09;5021703;28;20057;-69
2021/11/15 10:05:12;;;;;;;22.65;15.90;;;;;;;7.17;92.96;102916.00;4999983;28;20148;-68
2021/11/15 10:07:45;;;;;;;21.88;15.25;;;;;;;7.17;92.84;102923.84;5013201;28;20044;-70
2021/11/15 10:10:39;;;;;;;23.80;16.05;;;;;;;7.18;92.82;102928.22;5027134;28;20030;-70
2021/11/15 10:13:21;;;;;;;26.55;17.05;;;;;;;7.18;92.82;102935.16;5027109;28;20100;-69
2021/11/15 10:15:50;;;;;;;24.00;16.25;;;;;;;7.20;92.65;102938.66;5020345;28;20048;-69
2021/11/15 10:18:29;;;;;;;26.85;17.10;;;;;;;7.16;92.86;102936.88;5037945;28;20029;-68
2021/11/15 10:20:55;;;;;;;27.42;17.27;;;;;;;7.13;93.17;102924.63;5012261;28;20026;-72
2021/11/15 10:23:42;;;;;;;23.60;17.35;;;;;;;7.14;93.49;102921.16;5026024;28;20021;-71
2021/11/15 10:26:10;;;;;;;24.20;16.63;;;;;;;7.13;93.10;102915.94;5034212;28;20110;-70
2021/11/15 10:28:36;;;;;;;25.40;17.65;;;;;;;7.13;93.03;102911.59;5025644;28;20776;-71
2021/11/15 10:31:01;;;;;;;23.25;16.80;;;;;;;7.18;93.28;102915.16;5026109;28;20025;-70
2021/11/15 10:33:34;;;;;;;24.23;16.05;;;;;;;7.22;92.72;102909.13;5026145;28;20060;-69
2021/11/15 10:36:00;;;;;;;23.23;14.82;;;;;;;7.28;92.53;102916.16;5025888;28;20053;-71
2021/11/15 10:38:44;;;;;;;25.05;16.50;;;;;;;7.18;92.36;102923.00;5028074;28;20091;-71
2021/11/15 10:41:19;;;;;;;27.25;16.15;;;;;;;7.13;92.56;102914.19;5025586;28;20034;-70
2021/11/15 10:43:46;;;;;;;24.73;16.60;;;;;;;7.19;92.69;102923.84;5025023;28;20030;-71
2021/11/15 10:46:30;;;;;;;24.20;15.27;;;;;;;7.22;93.05;102918.69;5024398;28;20052;-70
2021/11/15 10:48:57;;;;;;;21.60;15.00;;;;;;;7.24;93.31;102922.19;5024613;28;20025;-71
2021/11/15 10:51:53;;;;;;;22.33;15.02;;;;;;;7.24;92.59;102923.09;5013541;28;20374;-70
2021/11/15 10:54:41;;;;;;;26.58;15.05;;;;;;;7.24;92.97;102910.03;5020370;28;20813;-70
2021/11/15 10:57:27;;;;;;;22.33;14.55;;;;;;;7.23;92.94;102908.28;5018739;28;20116;-70
2021/11/15 11:00:04;;;;;;;22.75;14.70;;;;;;;7.24;92.96;102906.53;5028112;28;20486;-70
2021/11/15 11:02:30;;;;;;;24.02;14.55;;;;;;;7.23;93.29;102900.44;5033598;28;20083;-69
2021/11/15 11:05:04;;;;;;;25.20;15.23;;;;;;;7.20;93.30;102889.06;5023649;28;20029;-70
2021/11/15 11:07:30;;;;;;;24.38;15.60;;;;;;;7.21;93.54;102902.16;5023272;28;20033;-70
2021/11/15 11:09:59;;;;;;;25.15;15.48;;;;;;;7.22;93.54;102893.47;5028766;28;20394;-71
2021/11/15 11:12:31;;;;;;;23.73;13.93;;;;;;;7.18;93.16;102888.16;5014047;28;20021;-72
2021/11/15 11:15:26;;;;;;;22.08;14.10;;;;;;;7.07;93.31;102899.34;5023856;28;20017;-70